sensor_id;sensor_type;location;lat;lon;timestamp;temperature;humidity
42905;DHT22;28550;51.228;4.528;2023-03-14T00:00:13;11.60;1.00
42905;DHT22;28550;51.228;4.528;2023-03-14T00:02:39;11.50;1.00
42905;DHT22;28550;51.228;4.528;2023-03-14T00:05:05;11.40;1.00
42905;DHT22;28550;51.228;4.528;2023-03-14T00:07:34;11.40;1.00
42905;DHT22;28550;51.228;4.528;2023-03-14T00:10:01;11.60;1.00
42905;DHT22;28550;51.228;4.528;2023-03-14T00:12:27;11.60;1.00
42905;DHT22;28550;51.228;4.528;2023-03-14T00:14:53;11.70;1.00
42905;DHT22;28550;51.228;4.528;2023-03-14T00:17:18;11.70;1.00
42905;DHT22;28550;51.228;4.528;2023-03-14T00:19:44;11.60;1.00
42905;DHT22;28550;51.228;4.528;2023-03-14T00:22:09;11.60;1.00
42905;DHT22;28550;51.228;4.528;2023-03-14T00:24:35;11.70;1.00
42905;DHT22;28550;51.228;4.528;2023-03-14T00:27:01;11.70;1.00
42905;DHT22;28550;51.228;4.528;2023-03-14T00:29:29;11.60;1.00
42905;DHT22;28550;51.228;4.528;2023-03-14T00:31:57;11.60;1.00
42905;DHT22;28550;51.228;4.528;2023-03-14T00:34:23;11.60;1.00
42905;DHT22;28550;51.228;4.528;2023-03-14T00:36:48;11.60;1.00
42905;DHT22;28550;51.228;4.528;2023-03-14T00:39:15;11.60;1.00
42905;DHT22;28550;51.228;4.528;2023-03-14T00:41:40;11.60;1.00
42905;DHT22;28550;51.228;4.528;2023-03-14T00:52:13;11.70;1.00
42905;DHT22;28550;51.228;4.528;2023-03-14T00:54:39;11.70;1.00
42905;DHT22;28550;51.228;4.528;2023-03-14T00:57:05;11.80;1.00
42905;DHT22;28550;51.228;4.528;2023-03-14T00:59:30;11.70;1.00
42905;DHT22;28550;51.228;4.528;2023-03-14T01:01:56;11.70;1.00
42905;DHT22;28550;51.228;4.528;2023-03-14T01:04:22;11.70;1.00
42905;DHT22;28550;51.228;4.528;2023-03-14T01:06:48;11.70;1.00
42905;DHT22;28550;51.228;4.528;2023-03-14T01:09:15;11.60;1.00
42905;DHT22;28550;51.228;4.528;2023-03-14T01:11:47;11.70;1.00
42905;DHT22;28550;51.228;4.528;2023-03-14T01:14:13;11.70;1.00
42905;DHT22;28550;51.228;4.528;2023-03-14T01:16:38;11.60;1.00
42905;DHT22;28550;51.228;4.528;2023-03-14T01:19:04;11.50;1.00
42905;DHT22;28550;51.228;4.528;2023-03-14T01:21:32;11.60;1.00
42905;DHT22;28550;51.228;4.528;2023-03-14T01:23:59;11.60;1.00
42905;DHT22;28550;51.228;4.528;2023-03-14T01:26:26;11.60;1.00
42905;DHT22;28550;51.228;4.528;2023-03-14T01:28:53;11.50;1.00
42905;DHT22;28550;51.228;4.528;2023-03-14T01:31:18;11.60;1.00
42905;DHT22;28550;51.228;4.528;2023-03-14T01:33:45;11.40;1.00
42905;DHT22;28550;51.228;4.528;2023-03-14T01:36:11;11.50;1.00
42905;DHT22;28550;51.228;4.528;2023-03-14T01:38:37;11.50;1.00
42905;DHT22;28550;51.228;4.528;2023-03-14T01:41:04;11.50;1.00
42905;DHT22;28550;51.228;4.528;2023-03-14T01:43:30;11.40;1.00
42905;DHT22;28550;51.228;4.528;2023-03-14T01:48:39;11.30;1.20
42905;DHT22;28550;51.228;4.528;2023-03-14T01:51:09;11.30;1.00
42905;DHT22;28550;51.228;4.528;2023-03-14T01:53:36;11.30;1.00
42905;DHT22;28550;51.228;4.528;2023-03-14T01:56:02;11.40;1.00
42905;DHT22;28550;51.228;4.528;2023-03-14T01:58:29;11.30;6.50
42905;DHT22;28550;51.228;4.528;2023-03-14T02:00:57;11.40;1.00
42905;DHT22;28550;51.228;4.528;2023-03-14T02:03:24;11.30;6.50
42905;DHT22;28550;51.228;4.528;2023-03-14T02:05:50;11.40;2.60
42905;DHT22;28550;51.228;4.528;2023-03-14T02:08:19;11.40;1.00
42905;DHT22;28550;51.228;4.528;2023-03-14T02:10:49;11.30;1.00
42905;DHT22;28550;51.228;4.528;2023-03-14T02:13:17;11.30;1.90
42905;DHT22;28550;51.228;4.528;2023-03-14T02:15:43;11.20;3.80
42905;DHT22;28550;51.228;4.528;2023-03-14T02:18:16;11.20;10.00
42905;DHT22;28550;51.228;4.528;2023-03-14T02:20:53;11.20;9.30
42905;DHT22;28550;51.228;4.528;2023-03-14T02:26:40;11.10;21.30
42905;DHT22;28550;51.228;4.528;2023-03-14T02:29:07;11.20;16.30
42905;DHT22;28550;51.228;4.528;2023-03-14T02:31:32;11.30;11.00
42905;DHT22;28550;51.228;4.528;2023-03-14T02:33:58;11.30;9.00
42905;DHT22;28550;51.228;4.528;2023-03-14T02:36:25;11.30;10.90
42905;DHT22;28550;51.228;4.528;2023-03-14T02:39:03;11.40;1.00
42905;DHT22;28550;51.228;4.528;2023-03-14T02:41:31;11.30;4.40
42905;DHT22;28550;51.228;4.528;2023-03-14T02:43:57;11.30;2.70
42905;DHT22;28550;51.228;4.528;2023-03-14T02:46:22;11.20;13.30
42905;DHT22;28550;51.228;4.528;2023-03-14T02:48:53;11.30;11.80
42905;DHT22;28550;51.228;4.528;2023-03-14T02:51:20;11.40;1.00
42905;DHT22;28550;51.228;4.528;2023-03-14T02:53:46;11.40;1.00
42905;DHT22;28550;51.228;4.528;2023-03-14T02:56:12;11.30;4.40
42905;DHT22;28550;51.228;4.528;2023-03-14T02:58:38;11.30;8.40
42905;DHT22;28550;51.228;4.528;2023-03-14T03:01:04;11.30;3.10
42905;DHT22;28550;51.228;4.528;2023-03-14T03:03:29;11.40;1.00
42905;DHT22;28550;51.228;4.528;2023-03-14T03:05:55;11.30;6.20
42905;DHT22;28550;51.228;4.528;2023-03-14T03:08:22;11.30;1.00
42905;DHT22;28550;51.228;4.528;2023-03-14T03:10:48;11.20;8.90
42905;DHT22;28550;51.228;4.528;2023-03-14T03:13:14;11.10;19.00
42905;DHT22;28550;51.228;4.528;2023-03-14T03:15:39;11.10;18.00
42905;DHT22;28550;51.228;4.528;2023-03-14T03:18:06;11.10;21.90
42905;DHT22;28550;51.228;4.528;2023-03-14T03:20:32;11.10;23.10
42905;DHT22;28550;51.228;4.528;2023-03-14T03:22:58;11.00;28.00
42905;DHT22;28550;51.228;4.528;2023-03-14T03:25:23;11.10;30.70
42905;DHT22;28550;51.228;4.528;2023-03-14T03:27:49;11.00;37.10
42905;DHT22;28550;51.228;4.528;2023-03-14T03:30:15;11.00;44.90
42905;DHT22;28550;51.228;4.528;2023-03-14T03:32:41;11.00;48.80
42905;DHT22;28550;51.228;4.528;2023-03-14T03:35:07;11.10;52.20
42905;DHT22;28550;51.228;4.528;2023-03-14T03:37:33;11.00;56.10
42905;DHT22;28550;51.228;4.528;2023-03-14T03:39:59;11.10;56.90
42905;DHT22;28550;51.228;4.528;2023-03-14T03:42:27;11.10;58.50
42905;DHT22;28550;51.228;4.528;2023-03-14T03:44:53;11.00;74.80
42905;DHT22;28550;51.228;4.528;2023-03-14T03:47:18;10.90;84.10
42905;DHT22;28550;51.228;4.528;2023-03-14T03:49:44;10.80;91.80
42905;DHT22;28550;51.228;4.528;2023-03-14T03:52:09;10.80;94.40
42905;DHT22;28550;51.228;4.528;2023-03-14T03:54:35;10.70;96.10
42905;DHT22;28550;51.228;4.528;2023-03-14T03:57:01;10.60;98.40
42905;DHT22;28550;51.228;4.528;2023-03-14T03:59:26;10.60;98.80
42905;DHT22;28550;51.228;4.528;2023-03-14T04:01:52;10.50;99.90
42905;DHT22;28550;51.228;4.528;2023-03-14T04:04:17;10.60;99.90
42905;DHT22;28550;51.228;4.528;2023-03-14T04:06:43;10.50;99.90
42905;DHT22;28550;51.228;4.528;2023-03-14T04:09:09;10.50;99.90
42905;DHT22;28550;51.228;4.528;2023-03-14T04:11:36;10.50;99.90
42905;DHT22;28550;51.228;4.528;2023-03-14T04:14:02;10.40;99.90
42905;DHT22;28550;51.228;4.528;2023-03-14T04:16:28;10.50;99.90
42905;DHT22;28550;51.228;4.528;2023-03-14T04:18:54;10.50;99.90
42905;DHT22;28550;51.228;4.528;2023-03-14T04:21:20;10.50;99.90
42905;DHT22;28550;51.228;4.528;2023-03-14T04:23:47;10.40;99.90
42905;DHT22;28550;51.228;4.528;2023-03-14T04:26:14;10.40;99.90
42905;DHT22;28550;51.228;4.528;2023-03-14T04:28:40;10.50;99.90
42905;DHT22;28550;51.228;4.528;2023-03-14T04:31:24;10.40;99.90
42905;DHT22;28550;51.228;4.528;2023-03-14T04:33:49;10.40;99.90
42905;DHT22;28550;51.228;4.528;2023-03-14T04:36:15;10.50;99.90
42905;DHT22;28550;51.228;4.528;2023-03-14T04:38:41;10.50;99.90
42905;DHT22;28550;51.228;4.528;2023-03-14T04:41:07;10.40;99.90
42905;DHT22;28550;51.228;4.528;2023-03-14T04:46:08;10.60;99.90
42905;DHT22;28550;51.228;4.528;2023-03-14T04:48:34;10.70;99.90
42905;DHT22;28550;51.228;4.528;2023-03-14T04:51:01;10.70;99.90
42905;DHT22;28550;51.228;4.528;2023-03-14T04:53:36;10.80;99.90
42905;DHT22;28550;51.228;4.528;2023-03-14T04:56:09;10.80;99.90
42905;DHT22;28550;51.228;4.528;2023-03-14T05:01:06;10.60;99.90
42905;DHT22;28550;51.228;4.528;2023-03-14T05:03:33;10.60;99.90
42905;DHT22;28550;51.228;4.528;2023-03-14T05:06:08;10.60;99.90
42905;DHT22;28550;51.228;4.528;2023-03-14T05:13:51;10.60;99.90
42905;DHT22;28550;51.228;4.528;2023-03-14T05:16:18;10.60;99.90
42905;DHT22;28550;51.228;4.528;2023-03-14T05:18:43;10.60;99.90
42905;DHT22;28550;51.228;4.528;2023-03-14T05:21:09;10.60;99.90
42905;DHT22;28550;51.228;4.528;2023-03-14T05:23:34;10.60;99.90
42905;DHT22;28550;51.228;4.528;2023-03-14T05:26:00;10.50;99.90
42905;DHT22;28550;51.228;4.528;2023-03-14T05:28:26;10.50;99.90
42905;DHT22;28550;51.228;4.528;2023-03-14T05:30:52;10.60;99.90
42905;DHT22;28550;51.228;4.528;2023-03-14T05:33:18;10.60;99.90
42905;DHT22;28550;51.228;4.528;2023-03-14T05:35:43;10.60;99.90
42905;DHT22;28550;51.228;4.528;2023-03-14T05:38:09;10.70;99.90
42905;DHT22;28550;51.228;4.528;2023-03-14T05:40:34;10.70;99.90
42905;DHT22;28550;51.228;4.528;2023-03-14T05:43:00;10.70;99.90
42905;DHT22;28550;51.228;4.528;2023-03-14T05:45:25;10.70;99.90
42905;DHT22;28550;51.228;4.528;2023-03-14T05:47:51;10.70;99.90
42905;DHT22;28550;51.228;4.528;2023-03-14T05:50:17;10.70;99.90
42905;DHT22;28550;51.228;4.528;2023-03-14T05:52:43;10.80;99.90
42905;DHT22;28550;51.228;4.528;2023-03-14T05:55:08;10.80;99.90
42905;DHT22;28550;51.228;4.528;2023-03-14T05:57:34;10.80;99.90
42905;DHT22;28550;51.228;4.528;2023-03-14T06:00:00;10.80;99.90
42905;DHT22;28550;51.228;4.528;2023-03-14T06:02:25;10.80;99.90
42905;DHT22;28550;51.228;4.528;2023-03-14T06:04:51;10.90;99.90
42905;DHT22;28550;51.228;4.528;2023-03-14T06:07:17;10.90;99.90
42905;DHT22;28550;51.228;4.528;2023-03-14T06:09:43;10.80;99.90
42905;DHT22;28550;51.228;4.528;2023-03-14T06:12:09;10.80;99.90
42905;DHT22;28550;51.228;4.528;2023-03-14T06:14:34;10.80;99.90
42905;DHT22;28550;51.228;4.528;2023-03-14T06:17:00;10.80;99.90
42905;DHT22;28550;51.228;4.528;2023-03-14T06:19:26;10.80;99.90
42905;DHT22;28550;51.228;4.528;2023-03-14T06:21:52;10.80;99.90
42905;DHT22;28550;51.228;4.528;2023-03-14T06:24:18;10.80;99.90
42905;DHT22;28550;51.228;4.528;2023-03-14T06:26:44;10.80;99.90
42905;DHT22;28550;51.228;4.528;2023-03-14T06:29:09;10.80;99.90
42905;DHT22;28550;51.228;4.528;2023-03-14T06:31:36;10.70;99.90
42905;DHT22;28550;51.228;4.528;2023-03-14T06:36:58;10.70;99.90
42905;DHT22;28550;51.228;4.528;2023-03-14T06:39:23;10.40;99.90
42905;DHT22;28550;51.228;4.528;2023-03-14T06:41:49;9.70;98.20
42905;DHT22;28550;51.228;4.528;2023-03-14T06:44:15;9.30;99.00
42905;DHT22;28550;51.228;4.528;2023-03-14T06:46:40;8.90;99.90
42905;DHT22;28550;51.228;4.528;2023-03-14T06:49:06;8.70;99.90
42905;DHT22;28550;51.228;4.528;2023-03-14T06:51:31;8.50;99.90
42905;DHT22;28550;51.228;4.528;2023-03-14T06:53:57;8.50;99.90
42905;DHT22;28550;51.228;4.528;2023-03-14T06:59:22;8.40;99.90
42905;DHT22;28550;51.228;4.528;2023-03-14T07:01:48;8.30;99.90
42905;DHT22;28550;51.228;4.528;2023-03-14T07:13:05;8.00;99.90
42905;DHT22;28550;51.228;4.528;2023-03-14T07:15:30;8.00;99.90
42905;DHT22;28550;51.228;4.528;2023-03-14T07:17:56;8.00;99.90
42905;DHT22;28550;51.228;4.528;2023-03-14T07:20:21;7.90;99.90
42905;DHT22;28550;51.228;4.528;2023-03-14T07:22:51;7.90;99.90
42905;DHT22;28550;51.228;4.528;2023-03-14T07:25:17;7.80;99.90
42905;DHT22;28550;51.228;4.528;2023-03-14T07:27:44;7.90;99.90
42905;DHT22;28550;51.228;4.528;2023-03-14T07:30:26;7.80;99.90
42905;DHT22;28550;51.228;4.528;2023-03-14T07:38:59;7.70;99.90
42905;DHT22;28550;51.228;4.528;2023-03-14T07:44:07;7.80;99.90
42905;DHT22;28550;51.228;4.528;2023-03-14T07:46:32;7.80;99.90
42905;DHT22;28550;51.228;4.528;2023-03-14T07:48:58;7.80;99.90
42905;DHT22;28550;51.228;4.528;2023-03-14T07:51:25;7.90;99.90
42905;DHT22;28550;51.228;4.528;2023-03-14T07:53:51;8.00;99.90
42905;DHT22;28550;51.228;4.528;2023-03-14T08:10:12;7.60;99.90
42905;DHT22;28550;51.228;4.528;2023-03-14T08:15:48;7.80;99.90
42905;DHT22;28550;51.228;4.528;2023-03-14T08:18:23;7.80;99.90
42905;DHT22;28550;51.228;4.528;2023-03-14T08:20:49;7.80;99.90
42905;DHT22;28550;51.228;4.528;2023-03-14T08:31:32;7.80;99.90
42905;DHT22;28550;51.228;4.528;2023-03-14T08:33:59;7.80;99.50
42905;DHT22;28550;51.228;4.528;2023-03-14T08:36:25;8.00;99.90
42905;DHT22;28550;51.228;4.528;2023-03-14T08:39:09;8.00;99.90
42905;DHT22;28550;51.228;4.528;2023-03-14T08:47:13;8.00;99.90
42905;DHT22;28550;51.228;4.528;2023-03-14T08:49:39;8.00;99.30
42905;DHT22;28550;51.228;4.528;2023-03-14T08:52:06;8.10;98.30
42905;DHT22;28550;51.228;4.528;2023-03-14T08:54:31;8.10;99.70
42905;DHT22;28550;51.228;4.528;2023-03-14T08:56:57;8.30;99.90
42905;DHT22;28550;51.228;4.528;2023-03-14T09:15:23;7.90;99.90
42905;DHT22;28550;51.228;4.528;2023-03-14T09:17:49;8.00;99.90
42905;DHT22;28550;51.228;4.528;2023-03-14T09:20:17;8.00;99.40
42905;DHT22;28550;51.228;4.528;2023-03-14T09:22:43;7.90;99.90
42905;DHT22;28550;51.228;4.528;2023-03-14T09:25:08;7.90;99.90
42905;DHT22;28550;51.228;4.528;2023-03-14T09:27:35;7.90;99.80
42905;DHT22;28550;51.228;4.528;2023-03-14T09:33:17;7.80;98.40
42905;DHT22;28550;51.228;4.528;2023-03-14T09:35:42;7.70;99.90
42905;DHT22;28550;51.228;4.528;2023-03-14T09:38:08;7.80;99.90
42905;DHT22;28550;51.228;4.528;2023-03-14T09:40:35;7.90;99.90
42905;DHT22;28550;51.228;4.528;2023-03-14T09:43:01;7.90;99.90
42905;DHT22;28550;51.228;4.528;2023-03-14T09:45:36;7.90;99.90
42905;DHT22;28550;51.228;4.528;2023-03-14T09:48:05;7.90;99.90
42905;DHT22;28550;51.228;4.528;2023-03-14T09:50:42;7.80;98.70
42905;DHT22;28550;51.228;4.528;2023-03-14T09:53:17;7.70;99.90
42905;DHT22;28550;51.228;4.528;2023-03-14T09:55:44;7.80;99.90
42905;DHT22;28550;51.228;4.528;2023-03-14T09:58:15;8.00;99.50
42905;DHT22;28550;51.228;4.528;2023-03-14T10:00:41;8.20;99.90
42905;DHT22;28550;51.228;4.528;2023-03-14T10:03:16;8.50;99.90
42905;DHT22;28550;51.228;4.528;2023-03-14T10:05:45;8.60;98.40
42905;DHT22;28550;51.228;4.528;2023-03-14T10:08:14;8.50;97.60
42905;DHT22;28550;51.228;4.528;2023-03-14T10:10:42;8.50;99.10
42905;DHT22;28550;51.228;4.528;2023-03-14T10:13:12;8.40;97.80
42905;DHT22;28550;51.228;4.528;2023-03-14T10:15:39;8.40;94.30
42905;DHT22;28550;51.228;4.528;2023-03-14T10:18:09;8.60;95.60
42905;DHT22;28550;51.228;4.528;2023-03-14T10:20:45;9.10;96.30
42905;DHT22;28550;51.228;4.528;2023-03-14T10:25:38;9.40;75.40
42905;DHT22;28550;51.228;4.528;2023-03-14T10:28:04;9.40;68.20
42905;DHT22;28550;51.228;4.528;2023-03-14T10:30:32;9.30;61.10
42905;DHT22;28550;51.228;4.528;2023-03-14T10:33:06;9.20;61.60
42905;DHT22;28550;51.228;4.528;2023-03-14T10:35:33;9.30;59.00
42905;DHT22;28550;51.228;4.528;2023-03-14T10:38:02;9.70;18.50
42905;DHT22;28550;51.228;4.528;2023-03-14T10:40:30;9.90;1.00
42905;DHT22;28550;51.228;4.528;2023-03-14T10:42:57;10.30;1.00
42905;DHT22;28550;51.228;4.528;2023-03-14T10:53:29;11.80;99.90
42905;DHT22;28550;51.228;4.528;2023-03-14T10:55:58;11.90;99.90
42905;DHT22;28550;51.228;4.528;2023-03-14T10:58:28;11.80;99.90
42905;DHT22;28550;51.228;4.528;2023-03-14T11:01:00;11.70;30.70
42905;DHT22;28550;51.228;4.528;2023-03-14T11:03:28;11.30;1.00
42905;DHT22;28550;51.228;4.528;2023-03-14T11:08:31;11.20;99.90
42905;DHT22;28550;51.228;4.528;2023-03-14T11:11:11;11.40;1.00
42905;DHT22;28550;51.228;4.528;2023-03-14T11:19:37;11.10;99.90
42905;DHT22;28550;51.228;4.528;2023-03-14T11:27:28;10.60;99.90
42905;DHT22;28550;51.228;4.528;2023-03-14T11:36:05;7.60;33.50
42905;DHT22;28550;51.228;4.528;2023-03-14T11:38:40;7.20;72.90
42905;DHT22;28550;51.228;4.528;2023-03-14T11:41:13;7.10;86.40
42905;DHT22;28550;51.228;4.528;2023-03-14T11:43:56;7.30;95.20
42905;DHT22;28550;51.228;4.528;2023-03-14T11:46:23;7.50;92.60
42905;DHT22;28550;51.228;4.528;2023-03-14T11:51:21;8.10;79.60
42905;DHT22;28550;51.228;4.528;2023-03-14T11:53:58;8.60;73.10
42905;DHT22;28550;51.228;4.528;2023-03-14T11:56:27;9.30;78.90
42905;DHT22;28550;51.228;4.528;2023-03-14T11:58:55;9.70;19.60
42905;DHT22;28550;51.228;4.528;2023-03-14T12:01:23;10.40;31.60
42905;DHT22;28550;51.228;4.528;2023-03-14T12:03:54;10.70;1.00
42905;DHT22;28550;51.228;4.528;2023-03-14T12:06:30;11.10;1.00
42905;DHT22;28550;51.228;4.528;2023-03-14T12:09:02;11.90;1.00
42905;DHT22;28550;51.228;4.528;2023-03-14T12:13:54;13.10;99.90
42905;DHT22;28550;51.228;4.528;2023-03-14T12:18:45;11.80;1.00
42905;DHT22;28550;51.228;4.528;2023-03-14T12:21:12;11.30;1.00
42905;DHT22;28550;51.228;4.528;2023-03-14T12:23:42;10.60;1.00
42905;DHT22;28550;51.228;4.528;2023-03-14T12:28:37;9.80;1.00
42905;DHT22;28550;51.228;4.528;2023-03-14T12:33:48;8.30;1.00
42905;DHT22;28550;51.228;4.528;2023-03-14T12:42:04;8.30;1.00
42905;DHT22;28550;51.228;4.528;2023-03-14T12:47:01;9.00;1.00
42905;DHT22;28550;51.228;4.528;2023-03-14T12:49:39;9.40;1.00
42905;DHT22;28550;51.228;4.528;2023-03-14T12:52:12;9.90;99.90
42905;DHT22;28550;51.228;4.528;2023-03-14T12:59:52;9.90;99.90
42905;DHT22;28550;51.228;4.528;2023-03-14T13:02:21;9.50;99.90
42905;DHT22;28550;51.228;4.528;2023-03-14T13:05:31;9.30;99.90
42905;DHT22;28550;51.228;4.528;2023-03-14T13:10:27;9.50;99.90
42905;DHT22;28550;51.228;4.528;2023-03-14T13:13:02;9.80;1.00
42905;DHT22;28550;51.228;4.528;2023-03-14T13:15:29;9.80;1.00
42905;DHT22;28550;51.228;4.528;2023-03-14T13:17:59;10.00;99.90
42905;DHT22;28550;51.228;4.528;2023-03-14T13:20:29;10.10;99.90
42905;DHT22;28550;51.228;4.528;2023-03-14T13:22:56;10.40;1.00
42905;DHT22;28550;51.228;4.528;2023-03-14T13:25:21;10.50;12.00
42905;DHT22;28550;51.228;4.528;2023-03-14T13:27:48;10.60;99.90
42905;DHT22;28550;51.228;4.528;2023-03-14T13:30:27;10.90;99.90
42905;DHT22;28550;51.228;4.528;2023-03-14T13:32:53;10.60;99.90
42905;DHT22;28550;51.228;4.528;2023-03-14T13:37:51;10.40;99.90
42905;DHT22;28550;51.228;4.528;2023-03-14T13:40:23;10.50;66.60
42905;DHT22;28550;51.228;4.528;2023-03-14T13:42:49;10.50;95.60
42905;DHT22;28550;51.228;4.528;2023-03-14T13:45:23;10.60;63.80
42905;DHT22;28550;51.228;4.528;2023-03-14T13:47:51;10.50;53.00
42905;DHT22;28550;51.228;4.528;2023-03-14T13:50:17;10.70;3.20
42905;DHT22;28550;51.228;4.528;2023-03-14T13:52:43;10.70;1.00
42905;DHT22;28550;51.228;4.528;2023-03-14T13:55:17;10.70;7.30
42905;DHT22;28550;51.228;4.528;2023-03-14T13:57:48;10.80;19.50
42905;DHT22;28550;51.228;4.528;2023-03-14T14:03:04;10.90;1.00
42905;DHT22;28550;51.228;4.528;2023-03-14T14:05:35;10.60;22.00
42905;DHT22;28550;51.228;4.528;2023-03-14T14:08:02;10.60;1.00
42905;DHT22;28550;51.228;4.528;2023-03-14T14:19:22;9.40;1.00
42905;DHT22;28550;51.228;4.528;2023-03-14T14:21:50;9.40;1.00
42905;DHT22;28550;51.228;4.528;2023-03-14T14:24:16;9.10;1.00
42905;DHT22;28550;51.228;4.528;2023-03-14T14:29:56;9.10;3.10
42905;DHT22;28550;51.228;4.528;2023-03-14T14:32:39;9.10;1.00
42905;DHT22;28550;51.228;4.528;2023-03-14T14:45:33;9.30;1.00
42905;DHT22;28550;51.228;4.528;2023-03-14T14:50:32;9.90;1.00
42905;DHT22;28550;51.228;4.528;2023-03-14T14:53:01;10.10;1.00
42905;DHT22;28550;51.228;4.528;2023-03-14T14:55:34;10.40;1.00
42905;DHT22;28550;51.228;4.528;2023-03-14T15:00:41;10.10;1.00
42905;DHT22;28550;51.228;4.528;2023-03-14T15:03:10;9.80;1.00
42905;DHT22;28550;51.228;4.528;2023-03-14T15:05:37;9.60;1.00
42905;DHT22;28550;51.228;4.528;2023-03-14T15:08:07;9.40;1.00
42905;DHT22;28550;51.228;4.528;2023-03-14T15:10:33;9.20;1.00
42905;DHT22;28550;51.228;4.528;2023-03-14T15:12:59;9.10;1.00
42905;DHT22;28550;51.228;4.528;2023-03-14T15:15:25;9.10;1.00
42905;DHT22;28550;51.228;4.528;2023-03-14T15:17:50;9.10;1.00
42905;DHT22;28550;51.228;4.528;2023-03-14T15:20:16;9.00;1.00
42905;DHT22;28550;51.228;4.528;2023-03-14T15:22:43;9.00;1.00
42905;DHT22;28550;51.228;4.528;2023-03-14T15:25:09;8.80;1.00
42905;DHT22;28550;51.228;4.528;2023-03-14T15:27:38;8.70;1.00
42905;DHT22;28550;51.228;4.528;2023-03-14T15:30:12;8.70;1.00
42905;DHT22;28550;51.228;4.528;2023-03-14T15:32:37;8.50;1.00
42905;DHT22;28550;51.228;4.528;2023-03-14T15:35:03;8.30;1.00
42905;DHT22;28550;51.228;4.528;2023-03-14T15:37:29;8.20;1.00
42905;DHT22;28550;51.228;4.528;2023-03-14T15:39:58;8.20;1.00
42905;DHT22;28550;51.228;4.528;2023-03-14T15:42:24;8.00;1.00
42905;DHT22;28550;51.228;4.528;2023-03-14T15:44:50;7.90;12.00
42905;DHT22;28550;51.228;4.528;2023-03-14T15:47:16;7.80;1.00
42905;DHT22;28550;51.228;4.528;2023-03-14T15:49:41;7.80;42.90
42905;DHT22;28550;51.228;4.528;2023-03-14T15:52:07;7.90;99.90
42905;DHT22;28550;51.228;4.528;2023-03-14T15:54:33;8.00;99.90
42905;DHT22;28550;51.228;4.528;2023-03-14T15:56:59;8.00;99.90
42905;DHT22;28550;51.228;4.528;2023-03-14T15:59:24;8.00;99.90
42905;DHT22;28550;51.228;4.528;2023-03-14T16:01:50;8.00;1.00
42905;DHT22;28550;51.228;4.528;2023-03-14T16:04:16;8.00;66.80
42905;DHT22;28550;51.228;4.528;2023-03-14T16:06:41;8.00;1.00
42905;DHT22;28550;51.228;4.528;2023-03-14T16:09:55;7.90;1.00
42905;DHT22;28550;51.228;4.528;2023-03-14T16:12:10;7.90;99.90
42905;DHT22;28550;51.228;4.528;2023-03-14T16:14:36;7.90;99.90
42905;DHT22;28550;51.228;4.528;2023-03-14T16:17:02;7.90;1.00
42905;DHT22;28550;51.228;4.528;2023-03-14T16:19:27;7.90;99.90
42905;DHT22;28550;51.228;4.528;2023-03-14T16:21:53;7.90;99.90
42905;DHT22;28550;51.228;4.528;2023-03-14T16:24:21;7.80;99.90
42905;DHT22;28550;51.228;4.528;2023-03-14T16:26:49;7.80;99.90
42905;DHT22;28550;51.228;4.528;2023-03-14T16:29:15;7.80;99.90
42905;DHT22;28550;51.228;4.528;2023-03-14T16:31:41;7.80;99.90
42905;DHT22;28550;51.228;4.528;2023-03-14T16:34:10;7.80;99.90
42905;DHT22;28550;51.228;4.528;2023-03-14T16:36:36;7.80;99.90
42905;DHT22;28550;51.228;4.528;2023-03-14T16:39:05;8.00;99.90
42905;DHT22;28550;51.228;4.528;2023-03-14T16:41:31;8.00;99.90
42905;DHT22;28550;51.228;4.528;2023-03-14T16:43:59;8.10;99.90
42905;DHT22;28550;51.228;4.528;2023-03-14T16:46:26;8.10;99.90
42905;DHT22;28550;51.228;4.528;2023-03-14T16:48:53;7.90;99.90
42905;DHT22;28550;51.228;4.528;2023-03-14T16:51:18;7.80;99.90
42905;DHT22;28550;51.228;4.528;2023-03-14T16:53:44;7.80;99.90
42905;DHT22;28550;51.228;4.528;2023-03-14T16:56:10;7.80;99.90
42905;DHT22;28550;51.228;4.528;2023-03-14T16:58:36;7.80;1.00
42905;DHT22;28550;51.228;4.528;2023-03-14T17:01:06;7.80;1.00
42905;DHT22;28550;51.228;4.528;2023-03-14T17:03:37;7.80;39.80
42905;DHT22;28550;51.228;4.528;2023-03-14T17:06:03;7.90;1.00
42905;DHT22;28550;51.228;4.528;2023-03-14T17:08:49;7.70;99.90
42905;DHT22;28550;51.228;4.528;2023-03-14T17:11:15;7.70;99.90
42905;DHT22;28550;51.228;4.528;2023-03-14T17:13:43;7.60;1.00
42905;DHT22;28550;51.228;4.528;2023-03-14T17:16:09;7.60;1.00
42905;DHT22;28550;51.228;4.528;2023-03-14T17:18:35;7.80;99.90
42905;DHT22;28550;51.228;4.528;2023-03-14T17:21:01;7.90;99.90
42905;DHT22;28550;51.228;4.528;2023-03-14T17:23:28;7.90;99.90
42905;DHT22;28550;51.228;4.528;2023-03-14T17:25:54;7.70;99.90
42905;DHT22;28550;51.228;4.528;2023-03-14T17:28:20;7.60;99.90
42905;DHT22;28550;51.228;4.528;2023-03-14T17:30:48;7.50;99.90
42905;DHT22;28550;51.228;4.528;2023-03-14T17:33:14;7.40;99.90
42905;DHT22;28550;51.228;4.528;2023-03-14T17:35:41;7.30;99.90
42905;DHT22;28550;51.228;4.528;2023-03-14T17:38:07;7.20;99.90
42905;DHT22;28550;51.228;4.528;2023-03-14T17:40:32;7.10;1.00
42905;DHT22;28550;51.228;4.528;2023-03-14T17:42:58;7.00;99.90
42905;DHT22;28550;51.228;4.528;2023-03-14T17:45:24;6.90;2.80
42905;DHT22;28550;51.228;4.528;2023-03-14T17:47:49;6.80;99.90
42905;DHT22;28550;51.228;4.528;2023-03-14T17:50:15;6.70;99.90
42905;DHT22;28550;51.228;4.528;2023-03-14T17:52:40;6.60;1.00
42905;DHT22;28550;51.228;4.528;2023-03-14T17:55:06;6.50;1.00
42905;DHT22;28550;51.228;4.528;2023-03-14T17:57:32;6.50;1.00
42905;DHT22;28550;51.228;4.528;2023-03-14T18:00:09;6.40;99.90
42905;DHT22;28550;51.228;4.528;2023-03-14T18:02:36;6.40;1.00
42905;DHT22;28550;51.228;4.528;2023-03-14T18:05:02;6.30;1.00
42905;DHT22;28550;51.228;4.528;2023-03-14T18:07:34;6.20;1.00
42905;DHT22;28550;51.228;4.528;2023-03-14T18:10:04;6.10;1.00
42905;DHT22;28550;51.228;4.528;2023-03-14T18:12:30;6.00;99.90
42905;DHT22;28550;51.228;4.528;2023-03-14T18:14:56;5.90;1.00
42905;DHT22;28550;51.228;4.528;2023-03-14T18:17:21;5.90;99.90
42905;DHT22;28550;51.228;4.528;2023-03-14T18:19:48;5.70;1.00
42905;DHT22;28550;51.228;4.528;2023-03-14T18:22:14;5.60;99.90
42905;DHT22;28550;51.228;4.528;2023-03-14T18:24:40;5.70;99.90
42905;DHT22;28550;51.228;4.528;2023-03-14T18:27:06;5.70;99.90
42905;DHT22;28550;51.228;4.528;2023-03-14T18:32:00;5.70;99.90
42905;DHT22;28550;51.228;4.528;2023-03-14T18:34:26;5.90;1.00
42905;DHT22;28550;51.228;4.528;2023-03-14T18:36:52;5.80;1.00
42905;DHT22;28550;51.228;4.528;2023-03-14T18:39:21;5.70;1.00
42905;DHT22;28550;51.228;4.528;2023-03-14T18:41:46;5.70;1.00
42905;DHT22;28550;51.228;4.528;2023-03-14T18:44:12;5.80;1.00
42905;DHT22;28550;51.228;4.528;2023-03-14T18:46:37;5.80;10.70
42905;DHT22;28550;51.228;4.528;2023-03-14T18:49:03;5.80;6.70
42905;DHT22;28550;51.228;4.528;2023-03-14T18:51:30;5.80;1.00
42905;DHT22;28550;51.228;4.528;2023-03-14T18:54:00;5.70;1.00
42905;DHT22;28550;51.228;4.528;2023-03-14T18:56:26;5.60;1.00
42905;DHT22;28550;51.228;4.528;2023-03-14T19:12:46;5.50;99.90